Vanua Mbalavu, Fiji
Current Conditions -  °F | °C
As of 5:00 PM on Thursday 23 Oct 2014 (Local Time) from NFNA Reporting Station
Broken Clouds Broken Clouds  
Wind Chill: 81°   Ceiling: 2200
Heat Index: 86°   Visibility: 31mi
Dew Point: 75°   Wind: 5mph
Humidity: 84%   Direction: 120°ESE
Pressure: 29.83"   Gusts: NA
Location:  17.25°S, 178.92°W
Report Text: NFNA 230500Z 12004KT 50KM BKN022 SCT045 27/24 Q1010 RMK RR NIL
Loading
Personal Weather Stations






























Interactive Weather Map
Tropical Storm Tracking
New forecast layout! Learn more

10-Day Weather Forecast

Advertisements
Track Severe Weather on mobile